Time;durP1;ratioP1;P1;durP2;ratioP2;P2;SDS_P1;SDS_P2;PMS_P1;PMS_P2;Temp;Humidity;BMP_temperature;BMP_pressure;BME280_temperature;BME280_humidity;BME280_pressure;Samples;Min_cycle;Max_cycle;Signal;HPM_P1;HPM_P2
2022/05/04 00:01:36;;;;;;;2.65;1.30;;;;;;;14.45;50.07;98769.38;5051041;28;20396;-68
2022/05/04 00:04:02;;;;;;;3.17;1.50;;;;;;;14.44;49.98;98759.88;5052113;28;20037;-68
2022/05/04 00:06:27;;;;;;;1.85;1.30;;;;;;;14.43;50.25;98753.78;5050804;28;20021;-68
2022/05/04 00:08:52;;;;;;;2.97;1.40;;;;;;;14.46;50.05;98750.84;5052012;28;20454;-68
2022/05/04 00:11:18;;;;;;;1.88;1.20;;;;;;;14.46;49.93;98739.53;5052965;28;20025;-67
2022/05/04 00:13:43;;;;;;;2.70;1.40;;;;;;;14.47;49.95;98739.41;5034411;28;20541;-68
2022/05/04 00:16:09;;;;;;;1.80;1.27;;;;;;;14.52;49.86;98740.78;5050766;28;20036;-68
2022/05/04 00:18:34;;;;;;;1.60;1.23;;;;;;;14.55;50.00;98751.81;5050812;28;20492;-68
2022/05/04 00:21:00;;;;;;;1.90;1.15;;;;;;;14.55;50.25;98743.94;5051393;28;20480;-68
2022/05/04 00:23:26;;;;;;;2.03;1.30;;;;;;;14.58;49.80;98742.81;5050442;28;20111;-69
2022/05/04 00:25:51;;;;;;;2.78;1.17;;;;;;;14.59;49.72;98742.66;5050777;28;20095;-68
2022/05/04 00:28:17;;;;;;;1.88;1.13;;;;;;;14.60;49.95;98743.56;5034124;28;20456;-68
2022/05/04 00:30:42;;;;;;;4.00;1.30;;;;;;;14.62;49.78;98746.84;5034188;28;20033;-68
2022/05/04 00:33:08;;;;;;;1.58;1.10;;;;;;;14.67;49.92;98754.31;5050963;28;20465;-68
2022/05/04 00:35:34;;;;;;;1.90;1.35;;;;;;;14.68;49.85;98750.72;5051569;28;20057;-68
2022/05/04 00:37:59;;;;;;;2.13;1.20;;;;;;;14.67;49.58;98754.31;5033995;28;20106;-68
2022/05/04 00:40:25;;;;;;;2.22;1.20;;;;;;;14.71;49.55;98753.06;5012973;28;20042;-68
2022/05/04 00:42:50;;;;;;;2.25;1.50;;;;;;;14.68;49.56;98753.34;5015941;28;20029;-68
2022/05/04 00:45:16;;;;;;;2.58;1.48;;;;;;;14.71;49.56;98742.56;5017518;28;20504;-68
2022/05/04 00:47:41;;;;;;;1.92;1.13;;;;;;;14.72;49.45;98750.28;5034636;28;20068;-68
2022/05/04 00:50:07;;;;;;;1.77;1.13;;;;;;;14.70;49.77;98749.59;5034955;28;20038;-68
2022/05/04 00:52:36;;;;;;;2.55;1.30;;;;;;;14.70;49.49;98749.59;5001637;28;20045;-68
2022/05/04 00:55:03;;;;;;;2.45;1.17;;;;;;;14.74;49.87;98764.09;5034283;28;20030;-69
2022/05/04 01:00:13;;;;;;;1.60;1.10;;;;;;;14.76;49.39;98763.97;5020668;28;20041;-68
2022/05/04 01:02:39;;;;;;;1.88;1.38;;;;;;;14.75;49.54;98764.94;5018075;28;20034;-68
2022/05/04 01:05:09;;;;;;;1.80;1.33;;;;;;;14.77;49.41;98766.44;5018183;28;20045;-68
2022/05/04 01:07:38;;;;;;;2.08;1.42;;;;;;;14.75;49.36;98752.59;5018337;28;20078;-68
2022/05/04 01:10:04;;;;;;;1.65;1.23;;;;;;;14.77;49.48;98761.19;5018166;28;20095;-68
2022/05/04 01:12:30;;;;;;;2.00;1.20;;;;;;;14.80;49.35;98762.69;5017483;28;20120;-68
2022/05/04 01:14:55;;;;;;;1.60;1.20;;;;;;;14.81;49.24;98766.97;5035088;28;20381;-68
2022/05/04 01:17:20;;;;;;;1.85;1.10;;;;;;;14.80;49.39;98768.78;5033832;28;20034;-68
2022/05/04 01:19:46;;;;;;;3.15;1.30;;;;;;;14.81;49.26;98766.97;5035353;28;20033;-68
2022/05/04 01:22:11;;;;;;;2.13;1.30;;;;;;;14.81;49.25;98766.97;5035118;28;20469;-68
2022/05/04 01:24:38;;;;;;;2.85;1.25;;;;;;;14.81;49.32;98767.81;5017227;28;20042;-68
2022/05/04 01:27:04;;;;;;;2.55;1.55;;;;;;;14.79;48.81;98761.88;5017442;28;20025;-68
2022/05/04 01:29:30;;;;;;;2.97;1.50;;;;;;;14.81;48.88;98762.53;5017157;28;20504;-68
2022/05/04 01:31:55;;;;;;;2.25;1.20;;;;;;;14.81;49.06;98752.03;5034972;28;20041;-68
2022/05/04 01:34:21;;;;;;;1.67;1.10;;;;;;;14.83;49.00;98757.16;5033109;28;20060;-67
2022/05/04 01:36:46;;;;;;;1.77;1.40;;;;;;;14.83;48.96;98765.03;5033736;28;20034;-68
2022/05/04 01:39:12;;;;;;;1.90;1.20;;;;;;;14.80;48.91;98758.28;5034673;28;20500;-68
2022/05/04 01:44:21;;;;;;;1.30;1.00;;;;;;;14.81;48.83;98778.31;5033799;28;20098;-68
2022/05/04 01:46:46;;;;;;;2.00;1.20;;;;;;;14.81;48.61;98780.13;5033379;28;20029;-68
2022/05/04 01:49:12;;;;;;;2.08;1.30;;;;;;;14.82;48.67;98785.25;5033321;28;20049;-68
2022/05/04 01:51:37;;;;;;;2.35;1.33;;;;;;;14.83;48.47;98793.94;5016895;28;20400;-68
2022/05/04 01:54:03;;;;;;;1.85;1.10;;;;;;;14.84;48.61;98790.34;5033752;28;20053;-68
2022/05/04 01:56:28;;;;;;;2.63;1.20;;;;;;;14.80;48.88;98783.72;5033252;28;20030;-68
2022/05/04 01:58:54;;;;;;;1.83;1.38;;;;;;;14.82;48.72;98781.78;5016741;28;20029;-68
2022/05/04 02:01:19;;;;;;;2.10;1.30;;;;;;;14.79;48.78;98784.69;5034191;28;20341;-68
2022/05/04 02:03:45;;;;;;;2.60;1.17;;;;;;;14.82;48.53;98782.59;5016942;28;20034;-68
2022/05/04 02:06:10;;;;;;;1.83;1.20;;;;;;;14.82;48.87;98781.78;5000367;28;20040;-68
2022/05/04 02:08:37;;;;;;;2.17;1.20;;;;;;;14.84;48.59;98785.09;5034293;28;20468;-68
2022/05/04 02:11:02;;;;;;;1.90;1.25;;;;;;;14.82;48.67;98779.97;5016584;28;20030;-68
2022/05/04 02:13:27;;;;;;;2.20;1.15;;;;;;;14.79;48.76;98787.34;5032993;28;20036;-68
2022/05/04 02:15:53;;;;;;;1.85;1.30;;;;;;;14.84;48.46;98787.72;5016364;28;20480;-68
2022/05/04 02:18:18;;;;;;;2.85;1.25;;;;;;;14.82;48.32;98782.59;5034150;28;20034;-67
2022/05/04 02:20:44;;;;;;;1.98;1.10;;;;;;;14.85;48.28;98789.38;5034074;28;20033;-66
2022/05/04 02:23:09;;;;;;;2.00;1.20;;;;;;;14.86;48.37;98793.66;5032670;28;20100;-68
2022/05/04 02:25:35;;;;;;;3.63;1.25;;;;;;;14.87;48.29;98805.00;5016706;28;20388;-68
2022/05/04 02:28:00;;;;;;;1.55;1.00;;;;;;;14.83;48.52;98793.94;5032657;28;20033;-68
2022/05/04 02:30:26;;;;;;;2.13;1.35;;;;;;;14.86;48.25;98804.16;5032719;28;20420;-67
2022/05/04 02:32:51;;;;;;;1.42;1.10;;;;;;;14.87;48.33;98799.75;5016586;28;20489;-68
2022/05/04 02:38:01;;;;;;;2.42;1.20;;;;;;;14.86;48.45;98793.66;5018692;28;20033;-68
2022/05/04 02:40:27;;;;;;;1.65;1.10;;;;;;;14.87;48.27;98800.56;5032402;28;20571;-68
2022/05/04 02:42:53;;;;;;;2.08;1.02;;;;;;;14.82;48.22;98793.13;5033377;28;20116;-68
2022/05/04 02:45:19;;;;;;;2.40;1.10;;;;;;;14.86;48.12;98804.16;5016039;28;20544;-68
2022/05/04 02:47:44;;;;;;;2.42;1.02;;;;;;;14.87;48.63;98805.00;5032227;28;20029;-68
2022/05/04 02:50:09;;;;;;;1.30;1.02;;;;;;;14.87;48.33;98807.66;5015781;28;20038;-68
2022/05/04 02:52:35;;;;;;;1.42;0.90;;;;;;;14.87;48.18;98807.66;5015698;28;20033;-68
2022/05/04 02:55:01;;;;;;;1.83;1.15;;;;;;;14.87;48.11;98808.47;5031811;28;20041;-68
2022/05/04 02:57:26;;;;;;;1.25;1.00;;;;;;;14.83;48.55;98807.09;5015900;28;20037;-68
2022/05/04 02:59:52;;;;;;;1.50;1.10;;;;;;;14.87;48.32;98824.22;5015550;28;20048;-68
2022/05/04 03:02:29;;;;;;;1.40;1.10;;;;;;;14.86;48.28;98827.00;5032001;28;20033;-69
2022/05/04 03:05:00;;;;;;;2.15;1.30;;;;;;;14.82;48.01;98822.03;5032001;28;20488;-68
2022/05/04 03:07:26;;;;;;;3.00;1.13;;;;;;;14.82;48.00;98826.47;5015453;28;20052;-67
2022/05/04 03:09:52;;;;;;;3.53;1.20;;;;;;;14.80;48.40;98826.59;5015766;28;20416;-68
2022/05/04 03:12:18;;;;;;;2.20;1.20;;;;;;;14.79;48.34;98832.00;4999142;28;20083;-68
2022/05/04 03:14:43;;;;;;;1.75;1.15;;;;;;;14.79;48.02;98832.00;4998980;28;20045;-67
2022/05/04 03:17:09;;;;;;;3.03;1.20;;;;;;;14.81;47.79;98830.06;4999023;28;20461;-67
2022/05/04 03:19:35;;;;;;;2.20;1.35;;;;;;;14.81;47.92;98827.44;5031665;28;20473;-67
2022/05/04 03:22:00;;;;;;;1.90;1.23;;;;;;;14.83;47.67;98839.47;5015125;28;20076;-68
2022/05/04 03:24:26;;;;;;;1.88;1.30;;;;;;;14.79;47.93;98840.69;5031612;28;20036;-67
2022/05/04 03:26:51;;;;;;;3.75;1.40;;;;;;;14.74;47.88;98847.38;5031506;28;20048;-68
2022/05/04 03:29:17;;;;;;;3.22;1.55;;;;;;;14.71;47.73;98845.84;4998685;28;20037;-68
2022/05/04 03:31:43;;;;;;;3.47;1.70;;;;;;;14.69;47.95;98852.19;5031545;28;20124;-68
2022/05/04 03:34:08;;;;;;;9.07;2.15;;;;;;;14.61;48.27;98845.88;5031217;28;20053;-67
2022/05/04 03:36:37;;;;;;;6.82;2.38;;;;;;;14.58;48.06;98843.47;5014933;28;20493;-67
2022/05/04 03:39:06;;;;;;;4.75;2.20;;;;;;;14.58;48.01;98843.47;5016772;28;20037;-69
2022/05/04 03:41:32;;;;;;;6.55;2.13;;;;;;;14.62;48.25;98860.63;5015452;28;20044;-67
2022/05/04 03:43:57;;;;;;;5.57;1.92;;;;;;;14.65;48.11;98864.78;4998546;28;20128;-69
2022/05/04 03:46:24;;;;;;;3.55;1.92;;;;;;;14.68;47.76;98866.31;5031602;28;20095;-68
2022/05/04 03:48:52;;;;;;;4.93;2.20;;;;;;;14.70;47.96;98877.50;5014917;28;20112;-68
2022/05/04 03:51:19;;;;;;;6.80;2.58;;;;;;;14.72;48.06;98871.16;5015000;28;20025;-69
2022/05/04 03:53:45;;;;;;;6.75;2.38;;;;;;;14.73;48.13;98874.59;5014872;28;20041;-68
2022/05/04 03:56:10;;;;;;;3.53;1.92;;;;;;;14.77;48.16;98882.06;5031490;28;20059;-68
2022/05/04 03:58:37;;;;;;;3.80;1.92;;;;;;;14.80;47.58;98888.81;5031119;28;20022;-68
2022/05/04 04:01:03;;;;;;;5.72;2.15;;;;;;;14.79;47.67;98887.19;5014946;28;20025;-68
2022/05/04 04:03:29;;;;;;;6.10;2.00;;;;;;;14.81;47.65;98885.25;4998658;28;20473;-69
2022/05/04 04:05:54;;;;;;;4.35;2.38;;;;;;;14.89;47.34;98897.69;5014528;28;20029;-68
2022/05/04 04:08:20;;;;;;;4.97;2.10;;;;;;;14.91;47.49;98904.47;4998438;28;20080;-69
2022/05/04 04:10:46;;;;;;;7.78;2.30;;;;;;;14.93;47.95;98902.50;5014548;28;20037;-68
2022/05/04 04:13:11;;;;;;;4.60;2.47;;;;;;;14.96;47.46;98904.00;5030707;28;20099;-68
2022/05/04 04:15:37;;;;;;;3.92;1.95;;;;;;;14.98;47.57;98907.34;5030731;28;20041;-68
2022/05/04 04:18:02;;;;;;;10.35;2.15;;;;;;;14.95;47.46;98902.38;5017344;28;20527;-69
2022/05/04 04:23:12;;;;;;;2.20;1.30;;;;;;;15.13;57.07;98905.94;5036092;28;20087;-69
2022/05/04 04:25:37;;;;;;;2.40;1.27;;;;;;;15.53;57.13;98906.66;5034778;28;20042;-68
2022/05/04 04:28:03;;;;;;;2.50;1.38;;;;;;;15.76;54.34;98907.09;5018571;28;20408;-68
2022/05/04 04:30:29;;;;;;;4.97;1.25;;;;;;;15.79;51.91;98908.63;5036140;28;20113;-67
2022/05/04 04:32:54;;;;;;;2.40;1.60;;;;;;;15.84;50.88;98911.66;5018743;28;20468;-67
2022/05/04 04:35:20;;;;;;;2.88;1.55;;;;;;;15.85;50.00;98913.31;5017678;28;20496;-69
2022/05/04 04:37:45;;;;;;;3.35;1.67;;;;;;;15.83;49.24;98908.22;5036174;28;20068;-67
2022/05/04 04:40:11;;;;;;;4.45;1.67;;;;;;;15.84;49.00;98915.09;5018242;28;20045;-69
2022/05/04 04:42:37;;;;;;;2.80;1.50;;;;;;;15.85;48.71;98918.59;5018375;28;20018;-68
2022/05/04 04:45:03;;;;;;;4.63;2.10;;;;;;;15.84;48.25;98916.91;5035791;28;20034;-68
2022/05/04 04:47:29;;;;;;;3.25;1.73;;;;;;;15.84;48.05;98915.09;5017471;28;20485;-68
2022/05/04 04:49:55;;;;;;;3.65;1.80;;;;;;;15.98;47.80;98919.06;5034483;28;20042;-69
2022/05/04 04:52:21;;;;;;;3.22;1.98;;;;;;;16.04;47.66;98904.50;5034390;28;20029;-68
2022/05/04 04:54:46;;;;;;;3.08;1.90;;;;;;;16.16;47.25;98903.31;5034576;28;20083;-68
2022/05/04 04:57:12;;;;;;;5.45;1.90;;;;;;;16.30;47.06;98909.84;5035341;28;20112;-69
2022/05/04 04:59:37;;;;;;;3.47;1.92;;;;;;;16.43;46.80;98906.84;5017683;28;20447;-69
2022/05/04 05:02:03;;;;;;;3.30;1.73;;;;;;;16.74;46.22;98909.91;5034584;28;20036;-67
2022/05/04 05:04:29;;;;;;;3.33;1.80;;;;;;;16.85;46.01;98914.13;5033935;28;20398;-68
2022/05/04 05:06:54;;;;;;;7.22;1.70;;;;;;;16.99;45.61;98915.41;5034551;28;20107;-68
2022/05/04 05:09:19;;;;;;;2.97;1.80;;;;;;;17.26;45.01;98903.88;5034071;28;20068;-68
2022/05/04 05:11:45;;;;;;;6.15;1.85;;;;;;;17.92;43.70;98911.31;5034272;28;20029;-68
2022/05/04 05:16:54;;;;;;;7.43;1.73;;;;;;;20.50;38.65;98913.25;5020126;28;20099;-69
2022/05/04 05:19:20;;;;;;;4.53;1.80;;;;;;;22.24;35.68;98911.28;5017608;28;20030;-69
2022/05/04 05:21:45;;;;;;;4.70;1.70;;;;;;;23.07;34.39;98905.47;5033893;28;20034;-69
2022/05/04 05:24:11;;;;;;;5.65;1.42;;;;;;;24.60;31.79;98908.03;5017556;28;20048;-68
2022/05/04 05:26:37;;;;;;;3.33;1.50;;;;;;;25.43;30.39;98910.28;5017440;28;20038;-69
2022/05/04 05:29:02;;;;;;;3.78;1.35;;;;;;;26.02;29.12;98904.97;5034969;28;20029;-69
2022/05/04 05:31:27;;;;;;;4.18;1.25;;;;;;;26.37;28.92;98901.88;5033840;28;20432;-68
2022/05/04 05:33:53;;;;;;;2.72;1.20;;;;;;;27.27;27.53;98906.94;5033412;28;20076;-68
2022/05/04 05:36:18;;;;;;;3.45;1.38;;;;;;;28.42;25.99;98893.00;5017680;28;20428;-68
2022/05/04 05:38:44;;;;;;;3.08;1.50;;;;;;;27.72;26.42;98902.34;5034782;28;20118;-69
2022/05/04 05:41:09;;;;;;;3.28;1.73;;;;;;;28.24;25.85;98897.34;5033643;28;20044;-69
2022/05/04 05:43:35;;;;;;;2.88;1.95;;;;;;;29.07;24.65;98905.59;5034525;28;20500;-69
2022/05/04 05:46:01;;;;;;;4.95;2.20;;;;;;;30.16;23.64;98908.69;5033392;28;20029;-69
2022/05/04 05:48:26;;;;;;;3.55;2.50;;;;;;;28.89;24.57;98893.09;5033420;28;20029;-68
2022/05/04 05:50:52;;;;;;;4.25;2.78;;;;;;;27.80;25.59;98900.19;5016909;28;20034;-69
2022/05/04 05:53:19;;;;;;;5.40;2.75;;;;;;;27.08;26.16;98906.09;5033472;28;20038;-69
2022/05/04 05:55:44;;;;;;;4.03;2.63;;;;;;;26.49;26.40;98902.84;5034650;28;20026;-68
2022/05/04 05:58:10;;;;;;;3.83;2.83;;;;;;;25.92;26.62;98901.88;5033075;28;20052;-68
2022/05/04 06:00:36;;;;;;;4.40;2.55;;;;;;;25.46;27.48;98893.84;5033561;28;20034;-69
2022/05/04 06:03:01;;;;;;;7.25;2.67;;;;;;;25.03;28.06;98891.63;5016596;28;20503;-68
2022/05/04 06:05:27;;;;;;;3.20;2.15;;;;;;;24.86;28.41;98895.72;5016672;28;20061;-68
2022/05/04 06:07:52;;;;;;;3.58;2.38;;;;;;;25.14;28.00;98892.84;5016213;28;20033;-68
2022/05/04 06:10:18;;;;;;;7.15;2.15;;;;;;;25.62;27.34;98894.41;5034364;28;20035;-68
2022/05/04 06:12:44;;;;;;;2.53;1.75;;;;;;;25.54;27.35;98898.13;5034217;28;20025;-69
2022/05/04 06:15:10;;;;;;;5.28;2.25;;;;;;;25.34;27.53;98900.03;5034174;28;20029;-68
2022/05/04 06:17:36;;;;;;;4.40;1.90;;;;;;;25.70;26.60;98896.03;5016638;28;20029;-69
2022/05/04 06:20:03;;;;;;;2.38;1.85;;;;;;;25.90;26.64;98901.28;5034017;28;20053;-69
2022/05/04 06:22:29;;;;;;;3.75;1.90;;;;;;;25.81;26.66;98898.84;5000443;28;20124;-69
2022/05/04 06:24:54;;;;;;;3.95;2.17;;;;;;;26.11;26.30;98908.22;5032478;28;20061;-69
2022/05/04 06:27:20;;;;;;;2.45;1.75;;;;;;;26.38;25.79;98906.22;5034401;28;20044;-70
2022/05/04 06:35:13;;;;;;;4.97;1.80;;;;;;;28.36;23.89;98905.47;5033449;28;20064;-68
2022/05/04 06:37:39;;;;;;;4.40;1.70;;;;;;;28.23;23.64;98909.16;5033595;28;20034;-68
2022/05/04 06:40:06;;;;;;;12.30;1.50;;;;;;;28.64;23.31;98912.94;5033200;28;20036;-69
2022/05/04 06:42:32;;;;;;;2.30;1.55;;;;;;;29.15;22.95;98905.25;5032779;28;20021;-69
2022/05/04 06:44:58;;;;;;;2.88;1.48;;;;;;;28.94;22.34;98906.66;5032445;28;20492;-69
2022/05/04 06:47:23;;;;;;;4.93;1.85;;;;;;;28.84;22.05;98909.94;5032171;28;20030;-69
2022/05/04 06:49:49;;;;;;;5.05;1.58;;;;;;;29.03;21.95;98905.25;5033489;28;20030;-69
2022/05/04 06:52:14;;;;;;;4.18;2.08;;;;;;;29.73;20.50;98910.78;5033426;28;20473;-70
2022/05/04 06:54:40;;;;;;;5.05;2.10;;;;;;;29.81;21.17;98905.09;5033898;28;20033;-69
2022/05/04 06:57:06;;;;;;;8.40;2.58;;;;;;;29.36;21.11;98908.41;5015505;28;20449;-68
2022/05/04 06:59:31;;;;;;;11.80;2.60;;;;;;;28.88;21.66;98905.72;5033291;28;20025;-68
2022/05/04 07:01:57;;;;;;;6.53;2.90;;;;;;;28.66;21.89;98913.50;5032125;28;20034;-71
2022/05/04 07:04:22;;;;;;;6.45;2.58;;;;;;;28.37;22.23;98914.31;5015664;28;20033;-72
2022/05/04 07:06:48;;;;;;;10.57;2.60;;;;;;;28.06;22.57;98916.22;5015832;28;20067;-69
2022/05/04 07:09:14;;;;;;;6.75;2.00;;;;;;;27.59;23.03;98912.19;5015608;28;20114;-69
2022/05/04 07:11:39;;;;;;;5.95;2.10;;;;;;;27.44;23.20;98917.13;5031956;28;20044;-69
2022/05/04 07:14:05;;;;;;;5.85;2.40;;;;;;;27.29;22.88;98912.06;5031762;28;20500;-69
2022/05/04 07:16:30;;;;;;;10.00;2.00;;;;;;;27.56;23.17;98907.28;5031426;28;20102;-68
2022/05/04 07:18:56;;;;;;;4.13;1.67;;;;;;;27.79;22.54;98905.78;4998938;28;20040;-70
2022/05/04 07:21:21;;;;;;;3.80;1.52;;;;;;;28.30;22.26;98901.00;5031581;28;20041;-68
2022/05/04 07:23:47;;;;;;;4.38;1.55;;;;;;;28.34;22.00;98897.66;5032973;28;20068;-69
2022/05/04 07:26:12;;;;;;;4.47;1.60;;;;;;;28.81;21.58;98891.59;5031439;28;20438;-70
2022/05/04 07:28:38;;;;;;;3.95;1.40;;;;;;;29.13;21.28;98890.41;5032613;28;20029;-69
2022/05/04 07:31:03;;;;;;;2.95;1.05;;;;;;;29.16;21.24;98877.34;5032576;28;20029;-69
2022/05/04 07:33:29;;;;;;;4.32;1.40;;;;;;;29.02;21.31;98881.31;5033018;28;20061;-68
2022/05/04 07:35:54;;;;;;;6.13;1.42;;;;;;;29.65;20.79;98890.50;5031278;28;20058;-68
2022/05/04 07:38:20;;;;;;;3.38;1.10;;;;;;;30.10;20.70;98892.44;5014741;28;20068;-70
2022/05/04 07:43:29;;;;;;;5.70;1.02;;;;;;;30.70;20.42;98892.16;5031593;28;20088;-69
2022/05/04 07:45:55;;;;;;;2.40;1.20;;;;;;;31.05;20.47;98894.59;5032595;28;20033;-69
2022/05/04 07:48:21;;;;;;;4.90;1.30;;;;;;;31.26;20.30;98895.69;5014617;28;20117;-70
2022/05/04 07:50:47;;;;;;;2.13;1.20;;;;;;;31.55;20.17;98899.09;5014756;28;20052;-69
2022/05/04 07:53:12;;;;;;;2.30;1.30;;;;;;;31.86;19.76;98895.94;4998069;28;20400;-68
2022/05/04 07:55:37;;;;;;;2.75;1.08;;;;;;;31.99;19.45;98903.66;5014980;28;20045;-68
2022/05/04 07:58:03;;;;;;;3.05;1.17;;;;;;;32.10;19.47;98900.03;5031091;28;20061;-69
2022/05/04 08:05:56;;;;;;;2.20;0.90;;;;;;;31.60;20.01;98892.94;5032506;28;20063;-69
2022/05/04 08:08:22;;;;;;;3.85;1.00;;;;;;;31.13;20.06;98893.38;5032159;28;20037;-68
2022/05/04 08:10:47;;;;;;;5.53;1.00;;;;;;;30.99;20.76;98890.19;5032531;28;20037;-68
2022/05/04 08:13:13;;;;;;;4.35;1.45;;;;;;;30.22;20.80;98899.66;5014469;28;20033;-70
2022/05/04 08:15:38;;;;;;;2.72;1.08;;;;;;;29.72;21.39;98899.22;5031846;28;20041;-70
2022/05/04 08:18:04;;;;;;;3.47;1.10;;;;;;;29.28;21.72;98900.72;5031022;28;20036;-70
2022/05/04 08:20:30;;;;;;;3.53;1.40;;;;;;;28.82;22.31;98898.56;4998199;28;20504;-70
2022/05/04 08:22:57;;;;;;;2.50;1.02;;;;;;;28.73;22.57;98896.47;5031081;28;20021;-69
2022/05/04 08:25:23;;;;;;;2.20;1.10;;;;;;;29.16;22.35;98888.09;5030973;28;20553;-69
2022/05/04 08:27:48;;;;;;;5.57;1.20;;;;;;;28.59;23.03;98888.63;5032109;28;20343;-71
2022/05/04 08:30:15;;;;;;;2.13;1.05;;;;;;;28.28;22.99;98882.44;5014245;28;20030;-69
2022/05/04 08:32:43;;;;;;;1.80;1.00;;;;;;;28.03;23.21;98885.28;5030427;28;20042;-69
2022/05/04 08:35:09;;;;;;;3.67;1.27;;;;;;;27.82;23.39;98875.00;5030618;28;20056;-69
2022/05/04 08:37:35;;;;;;;4.28;1.20;;;;;;;27.75;23.67;98883.97;5030907;28;20038;-69
2022/05/04 08:40:00;;;;;;;3.10;1.17;;;;;;;27.92;23.62;98884.16;5014991;28;20103;-68
2022/05/04 08:42:27;;;;;;;2.30;1.35;;;;;;;27.70;23.69;98880.31;5014179;28;20042;-70
2022/05/04 08:44:55;;;;;;;3.50;1.65;;;;;;;27.77;24.16;98881.06;5030601;28;20037;-70
2022/05/04 08:47:21;;;;;;;3.35;1.38;;;;;;;27.82;23.69;98889.25;5014945;28;20036;-69
2022/05/04 08:49:47;;;;;;;4.47;1.27;;;;;;;28.29;23.55;98881.41;5030543;28;20061;-69
2022/05/04 08:52:13;;;;;;;3.75;1.10;;;;;;;28.54;23.12;98884.97;5031881;28;20044;-68
2022/05/04 08:54:40;;;;;;;2.35;1.10;;;;;;;28.81;22.68;98888.06;5030721;28;20037;-69
2022/05/04 08:57:05;;;;;;;3.95;1.10;;;;;;;28.86;23.02;98883.63;5014296;28;20465;-69
2022/05/04 08:59:31;;;;;;;4.68;1.20;;;;;;;28.93;22.75;98891.56;5014400;28;20104;-69
2022/05/04 09:01:56;;;;;;;3.17;1.40;;;;;;;29.14;22.68;98889.34;5013873;28;20026;-69
2022/05/04 09:04:22;;;;;;;3.10;1.27;;;;;;;29.41;22.79;98893.22;5033911;28;20034;-69
2022/05/04 09:06:48;;;;;;;2.25;1.10;;;;;;;29.81;22.10;98882.72;5035594;28;20501;-69
2022/05/04 09:09:14;;;;;;;5.13;1.23;;;;;;;30.10;21.98;98884.38;5035357;28;20404;-69
2022/05/04 09:11:41;;;;;;;4.53;1.30;;;;;;;29.80;22.65;98871.16;5034140;28;20064;-72
2022/05/04 09:14:11;;;;;;;3.73;1.23;;;;;;;29.46;22.59;98892.53;5017817;28;20033;-69
2022/05/04 09:16:36;;;;;;;3.17;1.10;;;;;;;29.20;22.34;98886.56;5035265;28;20036;-68
2022/05/04 09:19:05;;;;;;;3.95;1.30;;;;;;;29.08;22.40;98883.03;5033601;28;20124;-70
2022/05/04 09:21:31;;;;;;;6.25;1.30;;;;;;;28.56;22.83;98886.38;5001832;28;20045;-69
2022/05/04 09:23:56;;;;;;;2.78;1.30;;;;;;;28.85;22.81;98883.88;5017458;28;20048;-69
2022/05/04 09:26:22;;;;;;;3.00;1.17;;;;;;;28.83;22.97;98880.59;5034784;28;20037;-69
2022/05/04 09:28:52;;;;;;;4.22;1.38;;;;;;;28.66;23.02;98881.28;5033883;28;20519;-69
2022/05/04 09:31:20;;;;;;;3.63;1.33;;;;;;;28.30;23.55;98888.41;5001222;28;20072;-70
2022/05/04 09:33:52;;;;;;;3.58;1.20;;;;;;;27.96;23.88;98881.88;5017514;28;20061;-71
2022/05/04 09:36:19;;;;;;;6.10;1.38;;;;;;;27.72;24.10;98883.59;5035070;28;20037;-68
2022/05/04 09:44:54;;;;;;;4.00;1.33;;;;;;;26.99;24.43;98875.25;5052653;28;20109;-69
2022/05/04 09:47:20;;;;;;;4.38;1.50;;;;;;;26.98;25.08;98889.72;5052555;28;20483;-68
2022/05/04 09:49:49;;;;;;;2.90;1.10;;;;;;;26.86;24.94;98886.91;5019404;28;20048;-68
2022/05/04 09:52:16;;;;;;;4.05;1.50;;;;;;;26.68;24.99;98884.22;5019175;28;20044;-69
2022/05/04 09:54:41;;;;;;;2.58;1.10;;;;;;;26.53;25.71;98882.63;5035975;28;20066;-69
2022/05/04 09:57:07;;;;;;;3.80;1.60;;;;;;;26.45;25.49;98888.22;5035827;28;20049;-69
2022/05/04 09:59:34;;;;;;;2.67;1.05;;;;;;;26.38;25.64;98884.81;5035737;28;20066;-70
2022/05/04 10:02:00;;;;;;;3.67;1.10;;;;;;;26.21;25.66;98886.34;5019081;28;20577;-70
2022/05/04 10:04:26;;;;;;;3.38;1.50;;;;;;;25.98;25.73;98877.84;5052056;28;20095;-70
2022/05/04 10:06:53;;;;;;;2.40;1.40;;;;;;;25.87;25.81;98886.50;5035584;28;20092;-70
2022/05/04 10:09:19;;;;;;;1.63;1.15;;;;;;;25.78;25.97;98885.91;5019232;28;20049;-69
2022/05/04 10:11:46;;;;;;;3.42;1.30;;;;;;;25.68;26.11;98879.38;5019001;28;20037;-69
2022/05/04 10:14:13;;;;;;;4.55;1.35;;;;;;;25.66;26.03;98881.44;5018640;28;20040;-68
2022/05/04 10:16:53;;;;;;;2.15;1.20;;;;;;;25.56;26.34;98868.53;5019052;28;20033;-68
2022/05/04 10:19:38;;;;;;;3.13;1.50;;;;;;;25.46;26.38;98868.97;5017033;28;20022;-68
2022/05/04 10:22:05;;;;;;;2.63;1.35;;;;;;;25.38;26.49;98867.34;5033117;28;20548;-68
2022/05/04 10:24:35;;;;;;;3.60;1.50;;;;;;;25.40;26.50;98862.59;5032702;28;20034;-69
2022/05/04 10:27:22;;;;;;;3.42;1.65;;;;;;;25.58;26.71;98869.13;5001616;28;20392;-69
2022/05/04 10:32:51;;;;;;;4.43;1.23;;;;;;;25.95;26.35;98864.00;5033199;28;20531;-70
2022/05/04 10:35:17;;;;;;;3.27;1.43;;;;;;;25.87;26.39;98856.25;5016302;28;20474;-68
2022/05/04 10:37:57;;;;;;;4.53;1.60;;;;;;;25.87;26.29;98858.91;5033987;28;20107;-68
2022/05/04 10:40:53;;;;;;;7.65;2.10;;;;;;;25.89;26.27;98865.72;5033743;28;20198;-68
2022/05/04 10:43:33;;;;;;;5.45;1.83;;;;;;;25.88;26.19;98857.91;5033752;28;20022;-68
2022/05/04 10:46:12;;;;;;;3.13;1.70;;;;;;;25.96;26.17;98842.41;5033900;28;20396;-68
2022/05/04 10:49:05;;;;;;;4.65;1.80;;;;;;;25.92;25.97;98851.91;5017290;28;20034;-67
2022/05/04 10:51:33;;;;;;;4.45;1.90;;;;;;;25.94;26.38;98849.03;5034839;28;20038;-67
2022/05/04 10:54:00;;;;;;;4.43;1.60;;;;;;;25.90;26.30;98847.81;5031861;28;20040;-70
2022/05/04 10:56:26;;;;;;;4.63;1.40;;;;;;;25.94;26.12;98846.34;5016111;28;20030;-68
2022/05/04 10:59:01;;;;;;;2.55;1.48;;;;;;;25.95;26.23;98850.66;5032116;28;20060;-67
2022/05/04 11:01:31;;;;;;;3.53;1.60;;;;;;;26.04;26.21;98846.72;5033531;28;20021;-68
2022/05/04 11:04:13;;;;;;;3.88;1.90;;;;;;;26.03;25.96;98852.28;5033254;28;20029;-67
2022/05/04 11:06:49;;;;;;;6.35;1.60;;;;;;;25.98;25.95;98848.41;5033259;28;20021;-68
2022/05/04 11:09:25;;;;;;;2.17;1.50;;;;;;;25.81;26.11;98842.69;5032167;28;20472;-67
2022/05/04 11:11:52;;;;;;;1.90;1.30;;;;;;;25.64;26.14;98836.22;5032146;28;20109;-68
2022/05/04 11:14:18;;;;;;;4.25;1.50;;;;;;;25.51;26.27;98845.09;5015418;28;20115;-67
2022/05/04 11:16:45;;;;;;;5.22;1.77;;;;;;;25.25;26.81;98837.97;5015420;28;20038;-69
2022/05/04 11:19:14;;;;;;;4.35;1.33;;;;;;;25.03;27.05;98840.91;5015372;28;20477;-69
2022/05/04 11:21:40;;;;;;;3.50;1.52;;;;;;;24.61;27.66;98840.31;5032958;28;20025;-68
2022/05/04 11:24:07;;;;;;;4.10;1.40;;;;;;;24.29;27.92;98834.72;5032945;28;20476;-68
2022/05/04 11:26:46;;;;;;;1.92;1.38;;;;;;;24.19;28.08;98836.97;5015221;28;20029;-68
2022/05/04 11:29:19;;;;;;;2.78;1.67;;;;;;;24.15;28.60;98843.75;5016026;28;20033;-68
2022/05/04 11:31:47;;;;;;;6.00;1.80;;;;;;;23.96;28.86;98843.50;5016354;28;20041;-67
2022/05/04 11:34:16;;;;;;;2.63;1.30;;;;;;;23.71;29.25;98837.84;5015393;28;20110;-69
2022/05/04 11:36:47;;;;;;;4.47;1.30;;;;;;;23.56;29.06;98831.84;5015490;28;20034;-67
2022/05/04 11:39:19;;;;;;;4.50;1.75;;;;;;;23.48;29.19;98827.50;5031344;28;20104;-68
2022/05/04 11:41:45;;;;;;;4.47;1.40;;;;;;;23.47;29.56;98823.19;5015465;28;20056;-68
2022/05/04 11:44:12;;;;;;;3.55;1.70;;;;;;;23.70;29.45;98830.03;5031456;28;20476;-68
2022/05/04 11:46:38;;;;;;;2.83;1.40;;;;;;;23.74;29.89;98823.31;5015064;28;20041;-68
2022/05/04 11:49:06;;;;;;;4.57;1.52;;;;;;;23.64;29.97;98832.50;5014765;28;20111;-69
2022/05/04 11:51:32;;;;;;;7.35;1.70;;;;;;;23.76;29.98;98834.59;5015188;28;20025;-69
2022/05/04 11:53:57;;;;;;;2.15;1.40;;;;;;;23.81;30.21;98824.94;5031118;28;20100;-68
2022/05/04 11:56:23;;;;;;;4.30;1.40;;;;;;;23.87;30.40;98828.69;5014666;28;20042;-67
2022/05/04 11:58:50;;;;;;;1.90;1.40;;;;;;;23.85;30.04;98812.09;5014541;28;20038;-68
2022/05/04 12:01:16;;;;;;;2.20;1.33;;;;;;;23.79;30.43;98812.84;5014611;28;20025;-68
2022/05/04 12:03:41;;;;;;;4.80;1.30;;;;;;;23.83;30.16;98803.41;4998422;28;20404;-68
2022/05/04 12:06:09;;;;;;;5.00;1.70;;;;;;;23.89;30.16;98796.50;5014600;28;20037;-68
2022/05/04 12:08:36;;;;;;;3.88;1.50;;;;;;;24.02;30.20;98796.50;5015101;28;20040;-68